createdAt,value
2023-04-08T00:00:51.614Z,26.20
2023-04-08T00:03:21.641Z,31.20
2023-04-08T00:05:49.620Z,25.67
2023-04-08T00:08:17.386Z,30.08
2023-04-08T00:10:45.418Z,32.60
2023-04-08T00:13:13.333Z,70.65
2023-04-08T00:15:41.942Z,39.60
2023-04-08T00:18:09.827Z,43.78
2023-04-08T00:20:39.007Z,51.47
2023-04-08T00:23:06.858Z,59.75
2023-04-08T00:25:34.639Z,33.97
2023-04-08T00:28:02.531Z,31.40
2023-04-08T00:30:31.393Z,30.38
2023-04-08T00:32:59.720Z,29.15
2023-04-08T00:35:27.737Z,30.95
2023-04-08T00:37:57.009Z,41.22
2023-04-08T00:40:24.814Z,32.28
2023-04-08T00:42:52.601Z,37.53
2023-04-08T00:45:20.541Z,48.88
2023-04-08T00:47:52.599Z,43.08
2023-04-08T00:50:21.168Z,42.10
2023-04-08T00:52:48.930Z,39.50
2023-04-08T00:55:18.391Z,47.85
2023-04-08T00:57:47.167Z,57.65
2023-04-08T01:00:16.335Z,51.22
2023-04-08T01:02:48.500Z,47.38
2023-04-08T01:05:25.992Z,35.15
2023-04-08T01:07:54.054Z,39.05
2023-04-08T01:10:27.667Z,50.78
2023-04-08T01:12:57.455Z,38.55
2023-04-08T01:15:27.255Z,33.03
2023-04-08T01:17:56.588Z,35.60
2023-04-08T01:20:26.334Z,26.90
2023-04-08T01:23:07.383Z,43.60
2023-04-08T01:25:37.986Z,44.65
2023-04-08T01:28:09.853Z,40.38
2023-04-08T01:30:39.581Z,31.30
2023-04-08T01:33:08.455Z,27.38
2023-04-08T01:35:37.258Z,31.52
2023-04-08T01:38:06.842Z,33.90
2023-04-08T01:40:36.247Z,39.00
2023-04-08T01:43:06.619Z,40.45
2023-04-08T01:45:35.791Z,30.17
2023-04-08T01:48:04.689Z,22.00
2023-04-08T01:50:33.348Z,28.77
2023-04-08T01:53:03.237Z,23.20
2023-04-08T01:55:32.501Z,58.35
2023-04-08T01:58:02.441Z,39.72
2023-04-08T02:00:32.202Z,32.15
2023-04-08T02:03:02.308Z,28.27
2023-04-08T02:05:30.441Z,30.27
2023-04-08T02:07:58.187Z,34.78
2023-04-08T02:10:26.137Z,52.45
2023-04-08T02:12:53.936Z,21.25
2023-04-08T02:15:21.958Z,48.88
2023-04-08T02:17:56.117Z,32.05
2023-04-08T02:20:32.403Z,40.70
2023-04-08T02:23:07.134Z,26.80
2023-04-08T02:25:38.689Z,22.45
2023-04-08T02:28:10.618Z,36.28
2023-04-08T02:30:42.381Z,35.25
2023-04-08T02:33:11.228Z,28.92
2023-04-08T02:35:42.449Z,32.65
2023-04-08T02:40:38.512Z,32.17
2023-04-08T02:43:06.390Z,23.52
2023-04-08T02:45:39.070Z,30.20
2023-04-08T02:48:07.313Z,29.90
2023-04-08T02:50:35.524Z,51.10
2023-04-08T02:53:05.466Z,29.02
2023-04-08T02:58:02.264Z,36.22
2023-04-08T03:00:30.051Z,22.45
2023-04-08T03:02:58.047Z,19.95
2023-04-08T03:05:27.244Z,23.35
2023-04-08T03:07:55.049Z,23.85
2023-04-08T03:10:24.236Z,23.15
2023-04-08T03:12:52.121Z,21.33
2023-04-08T03:15:20.459Z,19.00
2023-04-08T03:17:48.239Z,26.75
2023-04-08T03:20:16.186Z,22.70
2023-04-08T03:22:43.948Z,22.25
2023-04-08T03:25:11.888Z,29.55
2023-04-08T03:27:41.006Z,30.65
2023-04-08T03:30:09.763Z,26.75
2023-04-08T03:32:37.725Z,24.85
2023-04-08T03:35:06.455Z,34.13
2023-04-08T03:37:34.267Z,29.27
2023-04-08T03:40:02.035Z,26.95
2023-04-08T03:42:29.783Z,26.00
2023-04-08T03:44:59.039Z,30.33
2023-04-08T03:47:27.298Z,29.52
2023-04-08T03:49:55.485Z,29.02
2023-04-08T03:52:24.322Z,35.13
2023-04-08T03:54:52.069Z,35.45
2023-04-08T03:57:19.820Z,29.15
2023-04-08T03:59:47.569Z,28.67
2023-04-08T04:02:16.745Z,30.35
2023-04-08T04:04:44.605Z,42.88
2023-04-08T04:07:12.351Z,31.63
2023-04-08T04:09:40.106Z,27.25
2023-04-08T04:12:07.873Z,33.38
2023-04-08T04:14:35.893Z,37.08
2023-04-08T04:17:03.699Z,44.10
2023-04-08T04:19:33.167Z,40.35
2023-04-08T04:22:00.950Z,30.58
2023-04-08T04:24:28.751Z,25.88
2023-04-08T04:26:56.558Z,24.83
2023-04-08T04:29:24.405Z,26.33
2023-04-08T04:31:52.205Z,26.55
2023-04-08T04:34:19.984Z,27.98
2023-04-08T04:36:49.069Z,26.92
2023-04-08T04:39:16.830Z,25.95
2023-04-08T04:41:44.763Z,26.45
2023-04-08T04:44:12.537Z,26.00
2023-04-08T04:46:40.486Z,26.70
2023-04-08T04:49:08.354Z,26.77
2023-04-08T04:51:36.110Z,23.45
2023-04-08T04:54:05.424Z,26.52
2023-04-08T04:56:33.240Z,26.48
2023-04-08T04:59:01.030Z,22.58
2023-04-08T05:01:29.136Z,25.48
2023-04-08T05:03:57.232Z,24.85
2023-04-08T05:06:26.437Z,24.55
2023-04-08T05:08:54.388Z,24.23
2023-04-08T05:11:23.510Z,23.20
2023-04-08T05:13:51.404Z,24.63
2023-04-08T05:16:19.310Z,23.65
2023-04-08T05:18:47.078Z,23.60
2023-04-08T05:21:14.880Z,23.85
2023-04-08T05:23:42.636Z,27.52
2023-04-08T05:26:10.516Z,23.67
2023-04-08T05:28:39.600Z,27.40
2023-04-08T05:31:07.489Z,22.20
2023-04-08T05:33:35.260Z,24.50
2023-04-08T05:36:03.189Z,21.55
2023-04-08T05:38:30.991Z,23.15
2023-04-08T05:40:58.731Z,20.60
2023-04-08T05:43:26.612Z,19.98
2023-04-08T05:45:56.106Z,23.15
2023-04-08T05:48:23.896Z,20.15
2023-04-08T05:50:51.671Z,17.75
2023-04-08T05:53:19.506Z,18.45
2023-04-08T05:55:47.276Z,19.73
2023-04-08T05:58:15.078Z,18.70
2023-04-08T06:00:42.875Z,20.85
2023-04-08T06:03:12.314Z,19.38
2023-04-08T06:05:40.550Z,17.83
2023-04-08T06:08:10.831Z,16.75
2023-04-08T06:10:39.022Z,18.13
2023-04-08T06:13:06.800Z,18.00
2023-04-08T06:15:34.585Z,19.30
2023-04-08T06:18:02.457Z,19.02
2023-04-08T06:20:31.663Z,17.50
2023-04-08T06:22:59.443Z,18.60
2023-04-08T06:25:27.337Z,18.55
2023-04-08T06:27:55.258Z,17.15
2023-04-08T06:30:23.315Z,18.13
2023-04-08T06:32:51.110Z,17.63
2023-04-08T06:35:19.341Z,16.60
2023-04-08T06:37:48.489Z,18.00
2023-04-08T06:40:16.355Z,17.25
2023-04-08T06:42:44.505Z,18.13
2023-04-08T06:45:35.500Z,17.83
2023-04-08T06:48:03.476Z,19.33
2023-04-08T06:50:31.565Z,17.48
2023-04-08T06:53:00.734Z,19.90
2023-04-08T06:55:28.515Z,17.35
2023-04-08T06:57:56.277Z,17.13
2023-04-08T07:00:24.099Z,16.63
2023-04-08T07:02:52.190Z,18.70
2023-04-08T07:05:20.085Z,16.48
2023-04-08T07:07:47.836Z,16.33
2023-04-08T07:10:17.300Z,16.17
2023-04-08T07:12:45.403Z,15.52
2023-04-08T07:15:13.203Z,15.18
2023-04-08T07:17:40.981Z,16.98
2023-04-08T07:20:09.641Z,15.85
2023-04-08T07:22:37.478Z,15.75
2023-04-08T07:25:05.645Z,16.15
2023-04-08T07:27:36.297Z,15.85
2023-04-08T07:30:04.986Z,16.45
2023-04-08T07:32:33.933Z,14.48
2023-04-08T07:35:02.064Z,15.05
2023-04-08T07:37:29.923Z,15.27
2023-04-08T07:39:57.773Z,14.25
2023-04-08T07:42:25.949Z,15.52
2023-04-08T07:44:55.389Z,15.02
2023-04-08T07:47:23.272Z,14.07
2023-04-08T07:49:51.295Z,18.23
2023-04-08T07:52:19.192Z,17.77
2023-04-08T07:54:47.121Z,13.85
2023-04-08T07:57:14.970Z,14.10
2023-04-08T07:59:43.115Z,14.95
2023-04-08T08:02:12.443Z,13.63
2023-04-08T08:04:40.857Z,14.07
2023-04-08T08:07:08.985Z,14.95
2023-04-08T08:09:36.828Z,14.68
2023-04-08T08:12:04.779Z,13.07
2023-04-08T08:14:32.618Z,13.77
2023-04-08T08:17:01.493Z,14.43
2023-04-08T08:19:30.694Z,13.63
2023-04-08T08:21:59.081Z,14.70
2023-04-08T08:24:27.454Z,14.13
2023-04-08T08:26:55.541Z,16.05
2023-04-08T08:29:23.296Z,13.20
2023-04-08T08:31:51.145Z,16.08
2023-04-08T08:34:18.979Z,13.30
2023-04-08T08:36:48.103Z,12.20
2023-04-08T08:39:15.861Z,16.65
2023-04-08T08:41:43.664Z,14.60
2023-04-08T08:44:12.093Z,15.43
2023-04-08T08:46:45.317Z,15.57
2023-04-08T08:49:13.520Z,17.38
2023-04-08T08:51:41.778Z,13.40
2023-04-08T08:54:10.899Z,16.10
2023-04-08T08:56:38.756Z,15.27
2023-04-08T08:59:06.607Z,14.10
2023-04-08T09:01:35.818Z,14.40
2023-04-08T09:04:16.955Z,15.27
2023-04-08T09:06:46.606Z,13.43
2023-04-08T09:09:16.011Z,13.82
2023-04-08T09:11:45.089Z,13.88
2023-04-08T09:14:20.617Z,14.02
2023-04-08T09:16:48.850Z,14.18
2023-04-08T09:19:16.720Z,14.27
2023-04-08T09:21:44.563Z,15.10
2023-04-08T09:24:30.291Z,12.50
2023-04-08T09:26:58.073Z,14.73
2023-04-08T09:29:29.919Z,16.45
2023-04-08T09:32:01.916Z,12.38
2023-04-08T09:34:32.379Z,14.07
2023-04-08T09:37:00.190Z,13.77
2023-04-08T09:39:27.927Z,15.07
2023-04-08T09:42:01.105Z,14.07
2023-04-08T09:44:31.158Z,14.32
2023-04-08T09:47:06.804Z,14.95
2023-04-08T09:49:39.311Z,18.90
2023-04-08T09:52:10.928Z,14.60
2023-04-08T09:54:45.456Z,14.57
2023-04-08T09:57:22.902Z,14.68
2023-04-08T09:59:57.166Z,13.68
2023-04-08T10:02:31.607Z,13.63
2023-04-08T10:05:01.291Z,14.73
2023-04-08T10:07:29.141Z,13.23
2023-04-08T10:09:58.757Z,14.50
2023-04-08T10:12:27.939Z,13.32
2023-04-08T10:15:24.070Z,13.50
2023-04-08T10:17:52.295Z,12.73
2023-04-08T10:20:42.904Z,12.00
2023-04-08T10:23:11.467Z,13.93
2023-04-08T10:25:41.380Z,11.98
2023-04-08T10:28:29.872Z,12.88
2023-04-08T10:30:58.690Z,13.85
2023-04-08T10:33:34.628Z,12.93
2023-04-08T10:36:11.314Z,11.88
2023-04-08T10:38:39.289Z,12.48
2023-04-08T10:41:07.172Z,12.48
2023-04-08T10:43:36.617Z,13.73
2023-04-08T10:46:05.014Z,11.48
2023-04-08T10:48:33.056Z,12.57
2023-04-08T10:51:02.023Z,12.85
2023-04-08T10:53:31.211Z,11.70
2023-04-08T10:56:07.114Z,14.45
2023-04-08T10:58:37.464Z,12.65
2023-04-08T11:01:07.435Z,12.00
2023-04-08T11:03:37.106Z,11.70
2023-04-08T11:06:05.834Z,13.88
2023-04-08T11:08:34.741Z,13.45
2023-04-08T11:11:02.857Z,12.02
2023-04-08T11:13:31.795Z,12.45
2023-04-08T11:16:02.638Z,11.57
2023-04-08T11:18:32.257Z,12.98
2023-04-08T11:21:00.557Z,12.02
2023-04-08T11:23:28.733Z,12.25
2023-04-08T11:25:57.092Z,12.38
2023-04-08T11:28:26.048Z,12.85
2023-04-08T11:30:55.256Z,12.10
2023-04-08T11:33:26.273Z,12.95
2023-04-08T11:35:54.080Z,12.13
2023-04-08T11:38:24.397Z,12.30
2023-04-08T11:40:55.444Z,12.25
2023-04-08T11:43:23.568Z,12.40
2023-04-08T11:45:51.628Z,12.23
2023-04-08T11:48:19.512Z,11.43
2023-04-08T11:50:50.739Z,12.35
2023-04-08T11:53:20.418Z,12.18
2023-04-08T11:55:48.890Z,14.23
2023-04-08T11:58:17.443Z,12.95
2023-04-08T12:00:45.629Z,12.25
2023-04-08T12:03:14.172Z,10.82
2023-04-08T12:05:42.534Z,10.93
2023-04-08T12:08:11.778Z,12.38
2023-04-08T12:10:39.630Z,12.00
2023-04-08T12:13:07.450Z,10.73
2023-04-08T12:15:35.265Z,9.38
2023-04-08T12:18:03.234Z,9.88
2023-04-08T12:20:31.092Z,10.02
2023-04-08T12:22:58.851Z,10.27
2023-04-08T12:25:29.118Z,9.43
2023-04-08T12:27:56.905Z,10.93
2023-04-08T12:30:24.735Z,9.20
2023-04-08T12:32:55.234Z,9.75
2023-04-08T12:35:23.156Z,8.90
2023-04-08T12:37:51.087Z,10.48
2023-04-08T12:40:19.220Z,9.90
2023-04-08T12:42:48.514Z,9.10
2023-04-08T12:45:16.282Z,10.23
2023-04-08T12:47:44.072Z,8.70
2023-04-08T12:50:11.919Z,8.65
2023-04-08T12:52:39.673Z,8.85
2023-04-08T12:55:08.412Z,8.38
2023-04-08T12:57:36.698Z,7.85
2023-04-08T13:00:07.040Z,7.53
2023-04-08T13:02:34.957Z,9.55
2023-04-08T13:05:02.899Z,8.63
2023-04-08T13:07:30.700Z,9.02
2023-04-08T13:09:58.477Z,9.13
2023-04-08T13:12:27.072Z,9.80
2023-04-08T13:14:55.217Z,8.80
2023-04-08T13:17:24.429Z,9.60
2023-04-08T13:19:52.493Z,11.70
2023-04-08T13:22:20.318Z,11.05
2023-04-08T13:24:48.077Z,12.90
2023-04-08T13:27:16.145Z,11.40
2023-04-08T13:29:44.028Z,10.52
2023-04-08T13:32:12.036Z,11.68
2023-04-08T13:34:42.469Z,11.90
2023-04-08T13:37:10.398Z,9.95
2023-04-08T13:39:38.145Z,11.25
2023-04-08T13:42:05.947Z,11.25
2023-04-08T13:44:34.063Z,9.98
2023-04-08T13:47:01.974Z,10.82
2023-04-08T13:49:29.781Z,12.32
2023-04-08T13:51:58.967Z,10.45
2023-04-08T13:54:27.292Z,10.70
2023-04-08T13:56:55.095Z,10.45
2023-04-08T13:59:22.872Z,11.55
2023-04-08T14:01:54.050Z,12.23
2023-04-08T14:04:22.602Z,10.77
2023-04-08T14:06:51.508Z,9.95
2023-04-08T14:09:20.928Z,11.30
2023-04-08T14:11:48.723Z,10.90
2023-04-08T14:14:16.806Z,11.38
2023-04-08T14:16:45.061Z,10.13
2023-04-08T14:19:13.248Z,10.25
2023-04-08T14:21:41.245Z,11.23
2023-04-08T14:24:09.108Z,11.15
2023-04-08T14:26:38.486Z,10.57
2023-04-08T14:29:07.365Z,10.80
2023-04-08T14:31:36.232Z,10.75
2023-04-08T14:34:04.518Z,10.38
2023-04-08T14:36:32.810Z,10.93
2023-04-08T14:39:00.814Z,9.48
2023-04-08T14:41:28.613Z,8.95
2023-04-08T14:43:57.779Z,9.70
2023-04-08T14:46:28.853Z,11.70
2023-04-08T14:48:57.079Z,10.68
2023-04-08T14:51:24.889Z,11.48
2023-04-08T14:53:52.665Z,12.13
2023-04-08T14:56:20.585Z,12.65
2023-04-08T14:58:48.360Z,12.35
2023-04-08T15:01:17.552Z,12.70
2023-04-08T15:03:45.396Z,12.13
2023-04-08T15:06:17.616Z,10.52
2023-04-08T15:08:45.738Z,11.20
2023-04-08T15:11:13.644Z,11.07
2023-04-08T15:13:41.597Z,12.48
2023-04-08T15:16:09.444Z,11.70
2023-04-08T15:18:38.651Z,12.85
2023-04-08T15:21:06.539Z,12.25
2023-04-08T15:23:34.342Z,11.82
2023-04-08T15:26:02.188Z,12.70
2023-04-08T15:28:30.269Z,13.38
2023-04-08T15:30:58.102Z,12.90
2023-04-08T15:33:26.121Z,12.93
2023-04-08T15:35:55.961Z,12.90
2023-04-08T15:38:23.939Z,13.57
2023-04-08T15:40:51.802Z,12.18
2023-04-08T15:43:19.575Z,13.75
2023-04-08T15:45:48.183Z,12.82
2023-04-08T15:48:15.971Z,13.30
2023-04-08T15:50:43.839Z,12.10
2023-04-08T15:53:13.064Z,11.75
2023-04-08T15:55:41.780Z,12.23
2023-04-08T15:58:09.650Z,11.60
2023-04-08T16:00:37.580Z,13.10
2023-04-08T16:03:08.349Z,12.32
2023-04-08T16:05:39.150Z,12.48
2023-04-08T16:08:07.605Z,13.55
2023-04-08T16:10:37.301Z,11.88
2023-04-08T16:13:05.059Z,14.18
2023-04-08T16:15:34.083Z,12.00
2023-04-08T16:18:03.022Z,15.05
2023-04-08T16:20:30.989Z,12.52
2023-04-08T16:22:58.808Z,14.07
2023-04-08T16:25:27.839Z,13.32
2023-04-08T16:27:57.490Z,16.23
2023-04-08T16:30:25.275Z,14.30
2023-04-08T16:32:53.132Z,14.80
2023-04-08T16:35:22.321Z,17.27
2023-04-08T16:37:50.169Z,14.80
2023-04-08T16:40:18.141Z,16.02
2023-04-08T16:42:46.071Z,17.20
2023-04-08T16:45:15.774Z,18.60
2023-04-08T16:47:44.450Z,18.15
2023-04-08T16:50:12.694Z,21.02
2023-04-08T16:52:40.447Z,19.90
2023-04-08T16:55:09.394Z,20.70
2023-04-08T16:57:37.286Z,20.00
2023-04-08T17:00:06.013Z,20.00
2023-04-08T17:02:35.391Z,20.80
2023-04-08T17:05:03.291Z,22.60
2023-04-08T17:07:31.830Z,22.05
2023-04-08T17:09:59.630Z,21.33
2023-04-08T17:12:27.740Z,22.27
2023-04-08T17:14:55.765Z,22.15
2023-04-08T17:17:23.638Z,21.42
2023-04-08T17:19:53.088Z,20.65
2023-04-08T17:22:21.458Z,23.67
2023-04-08T17:24:49.194Z,25.52
2023-04-08T17:27:16.958Z,24.98
2023-04-08T17:29:44.790Z,23.00
2023-04-08T17:32:13.636Z,23.23
2023-04-08T17:34:41.767Z,23.48
2023-04-08T17:37:11.177Z,22.83
2023-04-08T17:39:40.831Z,22.95
2023-04-08T17:42:09.077Z,22.38
2023-04-08T17:44:37.374Z,22.30
2023-04-08T17:47:05.193Z,21.25
2023-04-08T17:49:32.995Z,21.40
2023-04-08T17:52:00.849Z,20.88
2023-04-08T17:54:31.458Z,22.10
2023-04-08T17:56:59.246Z,20.05
2023-04-08T17:59:27.035Z,20.83
2023-04-08T18:01:54.997Z,20.17
2023-04-08T18:04:23.015Z,20.20
2023-04-08T18:06:50.826Z,22.15
2023-04-08T18:09:18.657Z,20.38
2023-04-08T18:11:47.781Z,21.05
2023-04-08T18:14:16.499Z,22.80
2023-04-08T18:16:44.433Z,21.75
2023-04-08T18:19:13.540Z,22.65
2023-04-08T18:21:41.367Z,21.25
2023-04-08T18:24:09.425Z,21.35
2023-04-08T18:26:37.301Z,23.50
2023-04-08T18:29:06.648Z,23.60
2023-04-08T18:31:34.613Z,24.05
2023-04-08T18:34:03.140Z,23.00
2023-04-08T18:36:31.625Z,23.35
2023-04-08T18:38:59.438Z,22.90
2023-04-08T18:41:28.940Z,24.55
2023-04-08T18:43:56.704Z,24.40
2023-04-08T18:46:25.980Z,22.25
2023-04-08T18:48:53.813Z,24.30
2023-04-08T18:51:21.613Z,22.60
2023-04-08T18:53:49.857Z,24.42
2023-04-08T18:56:18.359Z,24.17
2023-04-08T18:58:47.148Z,23.10
2023-04-08T19:01:16.164Z,22.98
2023-04-08T19:03:45.822Z,22.17
2023-04-08T19:06:14.531Z,23.98
2023-04-08T19:08:42.477Z,25.30
2023-04-08T19:11:10.320Z,23.25
2023-04-08T19:13:38.076Z,24.75
2023-04-08T19:16:06.488Z,24.13
2023-04-08T19:18:34.345Z,26.23
2023-04-08T19:21:03.563Z,24.85
2023-04-08T19:23:32.098Z,25.10
2023-04-08T19:25:59.854Z,24.88
2023-04-08T19:28:27.698Z,25.30
2023-04-08T19:30:55.519Z,23.98
2023-04-08T19:33:23.675Z,21.83
2023-04-08T19:35:51.520Z,21.80
2023-04-08T19:38:20.842Z,22.20
2023-04-08T19:40:48.881Z,21.88
2023-04-08T19:43:17.611Z,21.77
2023-04-08T19:45:45.459Z,19.95
2023-04-08T19:48:13.203Z,21.95
2023-04-08T19:50:41.386Z,22.52
2023-04-08T19:53:09.179Z,22.05
2023-04-08T19:55:38.367Z,22.15
2023-04-08T19:58:06.884Z,21.55
2023-04-08T20:00:37.235Z,22.15
2023-04-08T20:03:05.869Z,21.30
2023-04-08T20:05:33.963Z,23.23
2023-04-08T20:08:02.227Z,23.45
2023-04-08T20:10:31.645Z,23.63
2023-04-08T20:13:00.806Z,21.55
2023-04-08T20:15:28.648Z,22.85
2023-04-08T20:17:56.520Z,22.10
2023-04-08T20:20:26.694Z,22.33
2023-04-08T20:22:55.476Z,22.70
2023-04-08T20:25:23.728Z,21.27
2023-04-08T20:27:52.198Z,22.20
2023-04-08T20:30:21.420Z,24.65
2023-04-08T20:32:49.277Z,23.15
2023-04-08T20:35:17.441Z,21.85
2023-04-08T20:37:46.177Z,22.83
2023-04-08T20:40:15.867Z,22.33
2023-04-08T20:42:45.530Z,22.90
2023-04-08T20:45:13.396Z,22.02
2023-04-08T20:47:44.531Z,23.42
2023-04-08T20:50:13.215Z,24.42
2023-04-08T20:52:41.124Z,25.70
2023-04-08T20:55:09.906Z,23.08
2023-04-08T20:57:37.699Z,23.75
2023-04-08T21:00:06.566Z,22.83
2023-04-08T21:02:34.555Z,24.80
2023-04-08T21:05:04.106Z,23.65
2023-04-08T21:07:31.897Z,23.80
2023-04-08T21:09:59.967Z,24.20
2023-04-08T21:12:27.772Z,23.20
2023-04-08T21:14:55.594Z,23.77
2023-04-08T21:17:23.423Z,25.05
2023-04-08T21:19:51.958Z,25.73
2023-04-08T21:22:21.104Z,25.40
2023-04-08T21:24:48.874Z,24.83
2023-04-08T21:27:16.646Z,25.98
2023-04-08T21:29:44.456Z,24.65
2023-04-08T21:32:12.478Z,25.48
2023-04-08T21:34:40.992Z,25.42
2023-04-08T21:37:08.791Z,26.23
2023-04-08T21:39:37.992Z,23.90
2023-04-08T21:42:05.947Z,25.23
2023-04-08T21:44:33.757Z,24.75
2023-04-08T21:47:02.140Z,25.65
2023-04-08T21:49:30.712Z,25.65
2023-04-08T21:51:58.898Z,28.52
2023-04-08T21:54:26.710Z,25.65
2023-04-08T21:56:56.621Z,26.35
2023-04-08T21:59:24.409Z,25.95
2023-04-08T22:01:52.306Z,25.40
2023-04-08T22:04:20.507Z,26.60
2023-04-08T22:06:49.353Z,25.83
2023-04-08T22:09:17.286Z,26.83
2023-04-08T22:11:45.080Z,28.10
2023-04-08T22:14:15.391Z,26.85
2023-04-08T22:16:43.280Z,30.83
2023-04-08T22:19:11.175Z,29.27
2023-04-08T22:21:38.947Z,30.98
2023-04-08T22:24:07.050Z,30.35
2023-04-08T22:26:34.820Z,32.33
2023-04-08T22:29:02.727Z,30.33
2023-04-08T22:31:31.840Z,33.92
2023-04-08T22:33:59.592Z,36.03
2023-04-08T22:36:27.453Z,35.33
2023-04-08T22:38:55.445Z,38.15
2023-04-08T22:41:24.578Z,37.90
2023-04-08T22:43:52.409Z,38.10
2023-04-08T22:46:20.381Z,38.60
2023-04-08T22:48:50.174Z,38.83
2023-04-08T22:51:18.090Z,40.28
2023-04-08T22:53:46.060Z,39.58
2023-04-08T22:56:13.827Z,41.90
2023-04-08T22:58:41.633Z,39.78
2023-04-08T23:01:13.538Z,39.13
2023-04-08T23:03:41.641Z,39.38
2023-04-08T23:06:11.471Z,40.70
2023-04-08T23:08:39.753Z,41.60
2023-04-08T23:11:07.980Z,42.53
2023-04-08T23:13:35.998Z,38.22
2023-04-08T23:16:03.906Z,40.90
2023-04-08T23:18:31.743Z,40.63
2023-04-08T23:20:59.540Z,40.78
2023-04-08T23:23:28.865Z,42.88
2023-04-08T23:25:56.720Z,38.67
2023-04-08T23:28:24.862Z,39.70
2023-04-08T23:30:52.655Z,42.22
2023-04-08T23:33:20.549Z,41.05
2023-04-08T23:35:48.383Z,43.70
2023-04-08T23:38:16.204Z,41.78
2023-04-08T23:40:45.342Z,40.45
2023-04-08T23:43:13.111Z,39.75
2023-04-08T23:45:40.896Z,42.95
2023-04-08T23:48:10.155Z,41.40
2023-04-08T23:50:38.122Z,41.08
2023-04-08T23:53:05.949Z,42.65
2023-04-08T23:55:33.718Z,39.38
2023-04-08T23:58:02.872Z,42.15
